Time;durP1;ratioP1;P1;durP2;ratioP2;P2;SDS_P1;SDS_P2;PMS_P1;PMS_P2;Temp;Humidity;BMP_temperature;BMP_pressure;BME280_temperature;BME280_humidity;BME280_pressure;Samples;Min_cycle;Max_cycle;Signal;HPM_P1;HPM_P2
2023/01/11 00:02:02;;;;;;;55.15;15.27;;;;;;;11.73;97.11;100461.06;5111789;28;20027;-87
2023/01/11 00:04:29;;;;;;;48.85;16.20;;;;;;;11.68;97.42;100440.88;5111760;28;20023;-87
2023/01/11 00:06:55;;;;;;;44.38;14.45;;;;;;;11.57;97.22;100433.75;5111747;28;20093;-85
2023/01/11 00:09:21;;;;;;;38.28;14.05;;;;;;;11.58;98.26;100434.59;5111917;28;20076;-88
2023/01/11 00:11:47;;;;;;;57.10;15.95;;;;;;;11.59;98.45;100436.31;5111379;28;20028;-88
2023/01/11 00:14:14;;;;;;;57.25;15.15;;;;;;;11.52;98.77;100427.91;5111521;28;20054;-85
2023/01/11 00:16:39;;;;;;;50.80;15.13;;;;;;;11.44;99.55;100419.66;5111325;28;20076;-86
2023/01/11 00:19:05;;;;;;;66.40;15.27;;;;;;;11.44;99.59;100436.66;5111471;28;20027;-87
2023/01/11 00:21:30;;;;;;;40.75;13.25;;;;;;;11.45;100.00;100472.53;5111381;28;20103;-86
2023/01/11 00:23:56;;;;;;;46.55;12.75;;;;;;;11.46;100.00;100463.47;5116059;28;20023;-87
2023/01/11 00:26:21;;;;;;;49.45;15.40;;;;;;;11.33;100.00;100444.84;5118872;28;20035;-86
2023/01/11 00:28:48;;;;;;;49.65;14.27;;;;;;;11.42;100.00;100475.47;5115224;28;20019;-85
2023/01/11 00:31:13;;;;;;;38.78;14.70;;;;;;;11.42;100.00;100488.94;5111876;28;20118;-87
2023/01/11 00:33:39;;;;;;;54.42;14.82;;;;;;;11.42;100.00;100492.50;5111230;28;20024;-83
2023/01/11 00:36:05;;;;;;;56.45;13.02;;;;;;;11.33;100.00;100477.16;5111264;28;20428;-84
2023/01/11 00:38:42;;;;;;;40.15;13.80;;;;;;;11.44;100.00;100487.81;5111572;28;20525;-84
2023/01/11 00:49:23;;;;;;;38.53;12.60;;;;;;;11.56;100.00;100482.38;5111276;28;20046;-88
2023/01/11 00:51:48;;;;;;;43.53;12.65;;;;;;;11.54;100.00;100470.84;5110838;28;20499;-90
2023/01/11 00:54:14;;;;;;;50.92;14.65;;;;;;;11.63;100.00;100475.44;5110990;28;20016;-89
2023/01/11 00:56:39;;;;;;;46.83;12.13;;;;;;;11.63;100.00;100459.28;5110712;28;20375;-87
2023/01/11 00:59:05;;;;;;;46.40;14.93;;;;;;;11.70;100.00;100430.84;5110895;28;20028;-85
2023/01/11 01:01:31;;;;;;;35.58;11.32;;;;;;;11.74;100.00;100402.66;5110761;28;20084;-85
2023/01/11 01:03:59;;;;;;;34.78;11.45;;;;;;;11.76;99.49;100425.75;5110817;28;20038;-88
2023/01/11 01:06:24;;;;;;;27.95;11.55;;;;;;;11.66;99.22;100423.97;5110664;28;20060;-89
2023/01/11 01:08:50;;;;;;;32.25;10.27;;;;;;;11.62;99.68;100411.78;5110562;28;20051;-89
2023/01/11 01:11:15;;;;;;;27.65;10.25;;;;;;;11.64;99.49;100423.28;5110865;28;20027;-85
2023/01/11 01:16:25;;;;;;;34.20;11.07;;;;;;;11.61;100.00;100416.31;5110474;28;20066;-87
2023/01/11 01:18:52;;;;;;;38.40;11.55;;;;;;;11.57;99.78;100411.31;5110630;28;20663;-86
2023/01/11 01:21:18;;;;;;;35.08;11.43;;;;;;;11.57;100.00;100411.31;5110869;28;20023;-87
2023/01/11 01:23:46;;;;;;;27.35;11.27;;;;;;;11.56;100.00;100407.78;5110457;28;20030;-87
2023/01/11 01:26:12;;;;;;;41.00;13.00;;;;;;;11.58;100.00;100402.28;5110490;28;20053;-85
2023/01/11 01:28:37;;;;;;;41.40;14.23;;;;;;;11.59;100.00;100410.19;5110372;28;20568;-89
2023/01/11 01:31:03;;;;;;;42.08;14.20;;;;;;;11.61;100.00;100412.78;5110893;28;20024;-87
2023/01/11 01:33:28;;;;;;;51.88;15.02;;;;;;;11.54;100.00;100420.53;5110747;28;20027;-87
2023/01/11 01:35:54;;;;;;;39.22;13.27;;;;;;;11.56;100.00;100405.09;5110415;28;20110;-88
2023/01/11 01:38:19;;;;;;;41.38;13.90;;;;;;;11.65;100.00;100406.97;5110834;28;20023;-86
2023/01/11 01:40:47;;;;;;;35.13;12.63;;;;;;;11.54;100.00;100415.16;5113700;28;20035;-86
2023/01/11 01:43:15;;;;;;;45.33;12.90;;;;;;;11.56;100.00;100426.63;5118127;28;20023;-84
2023/01/11 01:45:42;;;;;;;42.47;15.38;;;;;;;11.50;100.00;100442.50;5064607;28;20126;-86
2023/01/11 01:48:16;;;;;;;32.83;11.88;;;;;;;11.55;99.89;100459.09;5131711;28;20023;-85
2023/01/11 01:50:54;;;;;;;42.35;12.75;;;;;;;11.58;99.61;100459.69;5132477;28;20048;-85
2023/01/11 01:53:36;;;;;;;39.50;13.65;;;;;;;11.47;99.99;100460.63;5124384;28;20028;-84
2023/01/11 01:56:24;;;;;;;39.00;13.05;;;;;;;11.45;99.98;100453.66;5118501;28;20379;-87
2023/01/11 01:58:55;;;;;;;42.20;15.10;;;;;;;11.47;100.00;100468.69;5118049;28;20054;-88
2023/01/11 02:04:10;;;;;;;51.97;14.40;;;;;;;11.44;100.00;100462.72;5114011;28;20548;-86
2023/01/11 02:06:36;;;;;;;41.88;13.80;;;;;;;11.46;100.00;100479.63;5114008;28;20036;-86
2023/01/11 02:09:10;;;;;;;58.08;14.55;;;;;;;11.47;100.00;100484.00;5114112;28;20468;-86
2023/01/11 02:11:42;;;;;;;53.78;15.18;;;;;;;11.40;100.00;100472.94;5114444;28;20088;-86
2023/01/11 02:14:13;;;;;;;49.55;15.70;;;;;;;11.47;100.00;100484.00;5115030;28;20034;-87
2023/01/11 02:16:38;;;;;;;48.00;16.10;;;;;;;11.34;100.00;100480.69;5114325;28;20031;-86
2023/01/11 02:19:12;;;;;;;52.38;15.18;;;;;;;11.39;100.00;100473.06;5114215;28;20062;-86
2023/01/11 02:21:58;;;;;;;51.83;15.07;;;;;;;11.46;100.00;100466.16;5114054;28;20019;-87
2023/01/11 02:25:02;;;;;;;53.72;16.20;;;;;;;11.46;100.00;100460.78;5010775;28;20034;-88
2023/01/11 02:27:28;;;;;;;54.03;17.20;;;;;;;11.38;100.00;100465.97;4933411;29;20454;-87
2023/01/11 02:30:07;;;;;;;48.90;16.35;;;;;;;11.41;100.00;100439.63;4932862;29;20031;-86
2023/01/11 02:33:02;;;;;;;42.45;15.63;;;;;;;11.41;100.00;100450.38;4932774;29;20071;-86
2023/01/11 02:35:38;;;;;;;43.95;15.60;;;;;;;11.43;100.00;100439.50;4932335;29;20035;-85
2023/01/11 02:38:18;;;;;;;43.15;16.80;;;;;;;11.39;100.00;100435.38;4933052;29;20098;-88
2023/01/11 02:41:10;;;;;;;46.40;17.02;;;;;;;11.46;100.00;100450.00;4933167;29;20036;-86
2023/01/11 02:46:49;;;;;;;48.45;15.73;;;;;;;11.44;100.00;100460.03;4932956;29;20463;-86
2023/01/11 02:49:15;;;;;;;45.03;16.00;;;;;;;11.46;100.00;100469.72;4932813;29;20131;-85
2023/01/11 02:51:55;;;;;;;35.22;15.55;;;;;;;11.51;99.38;100454.97;4932521;29;20146;-85
2023/01/11 02:54:23;;;;;;;47.47;17.05;;;;;;;11.50;99.68;100464.88;4932919;29;20087;-85
2023/01/11 02:56:53;;;;;;;39.92;15.50;;;;;;;11.53;99.82;100474.56;4932419;29;20063;-86
2023/01/11 02:59:28;;;;;;;34.08;16.80;;;;;;;11.56;99.70;100477.81;4932629;29;20079;-85
2023/01/11 03:01:54;;;;;;;47.25;18.40;;;;;;;11.53;99.55;100480.78;4983655;28;20042;-87
2023/01/11 03:04:31;;;;;;;35.65;14.60;;;;;;;11.54;99.39;100501.34;5050474;28;20042;-85
2023/01/11 03:07:35;;;;;;;43.42;16.05;;;;;;;11.64;99.67;100520.25;5094389;28;20039;-87
2023/01/11 03:10:28;;;;;;;61.67;17.27;;;;;;;11.59;99.70;100522.50;5029637;28;20131;-86
2023/01/11 03:13:18;;;;;;;43.95;16.90;;;;;;;11.62;99.98;100527.63;5030008;28;20235;-86
2023/01/11 03:16:05;;;;;;;54.47;15.13;;;;;;;11.57;100.00;100524.47;5012880;28;20030;-86
2023/01/11 03:18:50;;;;;;;50.33;16.42;;;;;;;11.59;100.00;100533.28;5029403;28;20099;-85
2023/01/11 03:21:37;;;;;;;53.92;15.85;;;;;;;11.57;100.00;100537.94;5029594;28;20079;-86
2023/01/11 03:24:24;;;;;;;45.00;17.02;;;;;;;11.58;100.00;100539.63;5029515;28;20030;-86
2023/01/11 03:27:10;;;;;;;48.10;16.45;;;;;;;11.50;100.00;100534.91;5029404;28;20038;-86
2023/01/11 03:30:04;;;;;;;48.17;16.17;;;;;;;11.52;100.00;100541.03;5029514;28;20056;-88
2023/01/11 03:32:44;;;;;;;50.03;14.73;;;;;;;11.56;100.00;100523.59;5029584;28;20072;-86
2023/01/11 03:35:18;;;;;;;50.45;15.55;;;;;;;11.62;100.00;100504.22;5028930;28;20041;-87
2023/01/11 03:38:05;;;;;;;41.08;16.90;;;;;;;11.69;100.00;100512.59;5029197;28;20144;-85
2023/01/11 03:40:41;;;;;;;49.40;15.15;;;;;;;11.59;100.00;100522.50;5028892;28;20034;-85
2023/01/11 03:43:10;;;;;;;44.15;17.17;;;;;;;11.55;100.00;100504.91;5029069;28;20135;-87
2023/01/11 03:45:54;;;;;;;49.97;16.98;;;;;;;11.72;100.00;100505.16;5028998;28;20053;-87
2023/01/11 03:48:26;;;;;;;45.00;15.90;;;;;;;11.75;99.79;100480.63;5110590;28;20047;-86
2023/01/11 03:50:54;;;;;;;;;;;;;;;11.75;100.00;100485.16;5112610;28;20058;-87
2023/01/11 03:53:22;;;;;;;42.88;13.45;;;;;;;11.60;99.15;100498.09;5112060;28;19911;-86
2023/01/11 03:55:54;;;;;;;40.42;14.55;;;;;;;11.69;99.51;100516.16;5111746;28;20058;-85
2023/01/11 03:58:20;;;;;;;44.88;14.38;;;;;;;11.66;99.72;100518.25;5111720;28;20072;-86
2023/01/11 04:00:47;;;;;;;34.17;12.82;;;;;;;11.69;98.70;100518.84;5112125;28;20031;-86
2023/01/11 04:03:13;;;;;;;35.42;13.88;;;;;;;11.59;98.52;100517.94;5112159;28;20046;-85
2023/01/11 04:05:42;;;;;;;30.48;13.02;;;;;;;11.66;98.01;100534.44;5112082;28;20100;-86
2023/01/11 04:08:10;;;;;;;26.67;13.48;;;;;;;11.72;97.63;100529.41;5111519;28;20027;-86
2023/01/11 04:10:35;;;;;;;25.65;12.75;;;;;;;11.78;97.55;100534.25;5114082;28;20452;-85
2023/01/11 04:13:01;;;;;;;33.55;13.18;;;;;;;11.78;97.20;100545.03;5121565;28;20031;-86
2023/01/11 04:15:29;;;;;;;32.30;13.60;;;;;;;11.79;96.42;100545.88;5119946;28;20020;-86
2023/01/11 04:17:55;;;;;;;44.17;15.13;;;;;;;11.87;96.46;100549.59;5112585;28;20024;-86
2023/01/11 04:20:20;;;;;;;39.95;13.82;;;;;;;11.89;95.83;100554.88;5112664;28;20057;-86
2023/01/11 04:22:45;;;;;;;36.13;16.42;;;;;;;11.81;96.00;100547.44;5112226;28;20020;-86
2023/01/11 04:25:11;;;;;;;28.40;13.45;;;;;;;11.79;96.30;100549.44;5093611;28;20483;-87
2023/01/11 04:27:36;;;;;;;36.35;15.10;;;;;;;11.81;97.01;100542.06;5112279;28;20101;-86
2023/01/11 04:30:03;;;;;;;32.40;13.23;;;;;;;11.77;96.75;100542.47;5112097;28;20023;-87
2023/01/11 04:32:28;;;;;;;33.33;11.70;;;;;;;11.78;95.92;100539.63;5111653;28;20024;-87
2023/01/11 04:34:54;;;;;;;27.23;11.15;;;;;;;11.84;96.17;100544.47;5111420;28;20572;-87
2023/01/11 04:37:19;;;;;;;35.20;15.75;;;;;;;11.87;95.21;100544.22;5111809;28;20402;-84
2023/01/11 04:39:45;;;;;;;48.97;16.92;;;;;;;11.96;94.79;100531.75;5111871;28;20035;-86
2023/01/11 04:42:20;;;;;;;27.52;13.32;;;;;;;11.93;94.88;100548.19;5094737;28;20028;-86
2023/01/11 04:44:47;;;;;;;43.50;15.10;;;;;;;11.96;94.71;100540.72;5112954;28;20042;-87
2023/01/11 04:47:14;;;;;;;36.78;14.50;;;;;;;11.99;94.28;100536.88;5112055;28;20483;-88
2023/01/11 04:49:40;;;;;;;46.13;17.48;;;;;;;12.06;94.67;100547.97;5112000;28;20027;-86
2023/01/11 04:52:06;;;;;;;41.50;16.20;;;;;;;12.02;95.06;100562.72;5115621;28;20048;-88
2023/01/11 04:54:32;;;;;;;36.15;15.07;;;;;;;11.98;95.51;100557.63;5111389;28;20077;-86
2023/01/11 04:56:57;;;;;;;44.47;13.88;;;;;;;11.90;95.30;100568.19;5067996;28;20039;-86
2023/01/11 04:59:22;;;;;;;50.03;16.15;;;;;;;11.92;95.25;100574.31;5068616;28;20060;-88
2023/01/11 05:01:48;;;;;;;41.92;13.70;;;;;;;11.97;95.93;100573.91;5068903;28;20040;-85
2023/01/11 05:04:13;;;;;;;31.92;14.27;;;;;;;12.05;95.72;100560.59;5069023;28;20024;-87
2023/01/11 05:06:39;;;;;;;51.83;16.67;;;;;;;12.12;95.60;100566.31;5068621;28;20190;-87
2023/01/11 05:09:05;;;;;;;58.42;16.45;;;;;;;12.13;94.94;100550.00;5068570;28;20032;-87
2023/01/11 05:11:32;;;;;;;42.47;16.45;;;;;;;12.07;95.45;100557.78;5068366;28;20068;-87
2023/01/11 05:13:58;;;;;;;45.70;16.58;;;;;;;11.95;95.85;100557.88;5068704;28;20040;-87
2023/01/11 05:16:24;;;;;;;40.97;16.58;;;;;;;11.92;96.84;100563.56;5067640;28;20516;-88
2023/01/11 05:18:52;;;;;;;46.08;17.33;;;;;;;11.89;96.66;100569.22;5067892;28;20115;-86
2023/01/11 05:21:21;;;;;;;33.50;16.20;;;;;;;11.95;97.31;100574.06;5067394;28;20514;-86
2023/01/11 05:23:47;;;;;;;43.83;16.15;;;;;;;12.02;97.42;100584.28;5067879;28;20102;-87
2023/01/11 05:26:24;;;;;;;51.95;17.00;;;;;;;12.02;97.57;100591.38;5033874;28;20044;-87
2023/01/11 05:28:50;;;;;;;41.00;16.60;;;;;;;11.96;97.06;100583.84;5104306;28;20035;-87
2023/01/11 05:31:16;;;;;;;33.50;13.90;;;;;;;12.05;97.00;100592.13;5110633;28;20039;-87
2023/01/11 05:33:42;;;;;;;42.60;15.70;;;;;;;12.07;97.16;100598.22;5110882;28;20458;-86
2023/01/11 05:36:12;;;;;;;43.83;15.40;;;;;;;12.02;96.75;100597.78;5110725;28;20027;-86
2023/01/11 05:38:37;;;;;;;39.15;13.85;;;;;;;12.05;96.93;100611.00;5111544;28;20080;-88
2023/01/11 05:41:05;;;;;;;43.58;16.08;;;;;;;12.02;96.25;100612.06;5112186;28;20031;-88
2023/01/11 05:43:31;;;;;;;27.88;11.20;;;;;;;11.94;95.78;100598.44;5111876;28;20088;-87
2023/01/11 05:45:58;;;;;;;40.38;14.40;;;;;;;11.93;96.68;100597.56;5112656;28;20505;-87
2023/01/11 05:48:24;;;;;;;41.22;11.80;;;;;;;11.99;96.09;100607.81;5125718;28;20019;-87
2023/01/11 05:50:55;;;;;;;33.72;10.65;;;;;;;11.89;96.55;100611.47;5133856;28;20106;-85
2023/01/11 05:53:22;;;;;;;35.63;10.68;;;;;;;11.81;96.27;100617.50;5128953;28;20123;-85
2023/01/11 05:55:55;;;;;;;38.92;13.00;;;;;;;11.68;97.07;100614.13;5132270;28;20024;-88
2023/01/11 05:58:23;;;;;;;31.55;11.30;;;;;;;11.69;97.98;100609.59;5116309;28;20050;-90
2023/01/11 06:00:50;;;;;;;23.45;10.75;;;;;;;11.80;97.77;100623.03;5097990;28;20085;-89
2023/01/11 06:03:15;;;;;;;30.88;10.05;;;;;;;11.78;98.31;100615.06;5111744;28;20023;-89
2023/01/11 06:05:41;;;;;;;32.13;9.20;;;;;;;11.88;97.78;100613.31;5094940;28;20027;-90
2023/01/11 06:08:07;;;;;;;29.10;12.50;;;;;;;11.89;97.57;100606.94;5112513;28;20024;-89
2023/01/11 06:10:33;;;;;;;25.38;10.13;;;;;;;11.93;96.41;100608.34;5067014;28;20041;-87
2023/01/11 06:15:42;;;;;;;28.95;12.65;;;;;;;11.74;96.20;100613.63;5068687;28;20044;-85
2023/01/11 06:18:08;;;;;;;33.35;14.30;;;;;;;11.73;97.11;100614.63;5068391;28;20024;-84
2023/01/11 06:20:33;;;;;;;38.90;14.43;;;;;;;11.89;97.79;100639.28;5066700;28;20504;-83
2023/01/11 06:22:59;;;;;;;38.05;13.23;;;;;;;11.85;98.09;100637.81;5066708;28;20024;-84
2023/01/11 06:25:24;;;;;;;39.50;16.65;;;;;;;11.87;98.55;100635.84;5066662;28;20460;-84
2023/01/11 06:27:51;;;;;;;42.15;15.43;;;;;;;11.95;97.71;100648.66;5066467;28;20213;-86
2023/01/11 06:30:17;;;;;;;35.75;16.42;;;;;;;11.84;97.29;100651.41;5049472;28;20491;-83
2023/01/11 06:32:42;;;;;;;34.95;15.43;;;;;;;11.81;97.52;100668.72;5066344;28;20117;-84
2023/01/11 06:35:08;;;;;;;46.10;17.73;;;;;;;11.63;98.14;100658.63;5066253;28;20052;-84
2023/01/11 06:37:33;;;;;;;45.92;19.27;;;;;;;11.61;98.95;100674.91;5066666;28;20032;-84
2023/01/11 06:39:59;;;;;;;50.38;19.70;;;;;;;11.57;99.73;100665.38;5067054;28;20112;-84
2023/01/11 06:42:24;;;;;;;46.15;18.85;;;;;;;11.56;100.00;100677.13;5103513;28;20039;-83
2023/01/11 06:44:50;;;;;;;47.42;19.35;;;;;;;11.49;100.00;100665.19;5113181;28;20028;-84
2023/01/11 06:47:15;;;;;;;50.00;21.25;;;;;;;11.56;100.00;100669.06;5112946;28;20468;-85
2023/01/11 06:49:41;;;;;;;55.03;21.75;;;;;;;11.63;100.00;100675.63;5113238;28;20443;-85
2023/01/11 06:52:06;;;;;;;49.47;20.33;;;;;;;11.67;100.00;100677.09;5113491;28;20487;-85
2023/01/11 06:54:31;;;;;;;43.65;20.67;;;;;;;11.71;100.00;100688.50;5113653;28;20446;-86
2023/01/11 06:56:57;;;;;;;48.92;21.23;;;;;;;11.55;100.00;100674.59;5094596;28;20020;-86
2023/01/11 06:59:22;;;;;;;50.50;21.20;;;;;;;11.69;100.00;100688.59;5112834;28;20126;-86
2023/01/11 07:01:48;;;;;;;39.30;20.13;;;;;;;11.62;100.00;100682.00;5095520;28;20088;-84
2023/01/11 07:04:13;;;;;;;53.78;21.00;;;;;;;11.58;100.00;100677.00;5113377;28;20042;-85
2023/01/11 07:06:39;;;;;;;56.45;22.33;;;;;;;11.73;100.00;100692.78;5113334;28;20039;-85
2023/01/11 07:09:04;;;;;;;52.22;20.83;;;;;;;11.67;100.00;100685.19;5112881;28;20348;-84
2023/01/11 07:11:31;;;;;;;50.25;21.88;;;;;;;11.87;100.00;100692.44;5113110;28;20103;-89
2023/01/11 07:13:56;;;;;;;47.03;22.70;;;;;;;11.82;100.00;100670.44;5113284;28;20031;-87
2023/01/11 07:16:21;;;;;;;52.47;22.48;;;;;;;12.06;100.00;100685.47;5112611;28;20023;-86
2023/01/11 07:18:47;;;;;;;61.97;25.45;;;;;;;12.16;100.00;100681.84;5094533;28;20402;-85
2023/01/11 07:21:12;;;;;;;47.10;21.35;;;;;;;12.22;99.72;100672.34;5112405;28;20118;-86
2023/01/11 07:23:38;;;;;;;53.17;21.02;;;;;;;12.25;99.38;100672.09;5094633;28;20023;-87
2023/01/11 07:26:04;;;;;;;51.92;20.00;;;;;;;12.28;98.86;100677.22;5094085;28;20035;-85
2023/01/11 07:28:29;;;;;;;39.78;20.27;;;;;;;12.21;98.46;100659.84;5094819;28;20023;-85
2023/01/11 07:30:55;;;;;;;44.83;19.27;;;;;;;12.29;97.99;100668.16;5116824;28;20030;-85
2023/01/11 07:33:20;;;;;;;45.95;16.45;;;;;;;12.36;97.72;100686.34;5117284;28;20106;-88
2023/01/11 07:35:48;;;;;;;37.78;21.90;;;;;;;12.36;96.94;100669.28;5116581;28;20472;-84
2023/01/11 07:38:13;;;;;;;47.53;18.58;;;;;;;12.48;96.06;100665.50;5113895;28;20549;-86
2023/01/11 07:40:39;;;;;;;34.47;17.35;;;;;;;12.60;95.63;100683.31;5113097;28;20123;-86
2023/01/11 07:43:10;;;;;;;37.50;14.40;;;;;;;12.61;94.39;100676.06;5113290;28;20435;-85
2023/01/11 07:45:38;;;;;;;29.50;13.43;;;;;;;12.64;93.84;100684.75;5113035;28;20076;-84
2023/01/11 07:48:05;;;;;;;29.00;15.90;;;;;;;12.45;92.94;100682.81;5112746;28;20028;-86
2023/01/11 07:50:32;;;;;;;29.98;14.30;;;;;;;12.44;92.71;100704.56;5111726;28;20125;-86
2023/01/11 07:52:57;;;;;;;28.80;13.90;;;;;;;12.29;92.65;100705.91;5112466;28;20059;-85
2023/01/11 07:55:23;;;;;;;43.45;16.60;;;;;;;12.24;93.25;100703.59;5111159;28;20051;-85
2023/01/11 07:57:48;;;;;;;37.53;17.17;;;;;;;12.22;94.20;100702.03;5111966;28;20027;-85
2023/01/11 08:00:14;;;;;;;37.85;17.20;;;;;;;12.30;94.77;100703.06;5112948;28;20035;-84
2023/01/11 08:02:40;;;;;;;25.08;14.75;;;;;;;12.35;94.64;100705.38;5116363;28;20487;-87
2023/01/11 08:05:06;;;;;;;48.03;17.52;;;;;;;12.47;93.79;100706.97;5113259;28;20035;-86
2023/01/11 08:07:31;;;;;;;34.60;14.88;;;;;;;12.42;93.62;100698.41;5111593;28;20023;-88
2023/01/11 08:09:57;;;;;;;31.02;14.40;;;;;;;12.55;93.55;100707.16;5093579;28;20035;-86
2023/01/11 08:15:09;;;;;;;30.60;11.07;;;;;;;12.59;90.07;100716.69;5111728;28;20624;-86
2023/01/11 08:17:35;;;;;;;27.77;13.13;;;;;;;12.68;89.20;100718.56;5093289;28;20032;-85
2023/01/11 08:20:01;;;;;;;26.65;13.27;;;;;;;12.79;88.83;100721.16;5111392;28;20055;-85
2023/01/11 08:22:26;;;;;;;32.30;13.63;;;;;;;12.75;88.66;100714.31;5111563;28;20053;-86
2023/01/11 08:24:52;;;;;;;31.35;13.25;;;;;;;12.75;88.85;100710.78;5111458;28;20666;-86
2023/01/11 08:27:17;;;;;;;25.58;12.98;;;;;;;12.84;88.48;100729.69;5093189;28;20020;-86
2023/01/11 08:29:43;;;;;;;27.58;12.60;;;;;;;12.78;87.94;100719.44;5110996;28;20054;-87
2023/01/11 08:32:09;;;;;;;33.88;16.67;;;;;;;12.89;87.92;100732.84;5111071;28;20103;-85
2023/01/11 08:34:35;;;;;;;33.20;15.27;;;;;;;13.06;88.12;100745.69;5115238;28;20039;-86
2023/01/11 08:37:01;;;;;;;29.17;15.98;;;;;;;13.08;87.46;100749.16;5121738;28;20020;-85
2023/01/11 08:39:29;;;;;;;43.35;17.35;;;;;;;13.07;87.04;100758.22;5114317;28;20028;-85
2023/01/11 08:41:58;;;;;;;45.20;19.90;;;;;;;13.06;87.26;100755.63;5111065;28;20139;-86
2023/01/11 08:44:24;;;;;;;38.47;16.65;;;;;;;12.95;87.34;100751.22;5111149;28;20028;-85
2023/01/11 08:46:49;;;;;;;33.67;17.33;;;;;;;12.92;87.35;100743.38;5111201;28;20114;-86
2023/01/11 08:49:15;;;;;;;41.88;19.75;;;;;;;12.94;86.30;100751.31;5111108;28;20019;-86
2023/01/11 08:51:41;;;;;;;42.03;20.38;;;;;;;12.97;86.66;100754.59;5111190;28;20507;-84
2023/01/11 08:54:12;;;;;;;44.35;21.10;;;;;;;12.99;86.93;100760.75;5111075;28;20344;-84
2023/01/11 08:56:37;;;;;;;46.83;20.02;;;;;;;13.01;87.04;100750.66;5110895;28;20459;-86
2023/01/11 08:59:04;;;;;;;42.50;22.85;;;;;;;13.05;87.22;100741.28;5110932;28;20020;-86
2023/01/11 09:01:29;;;;;;;54.03;20.15;;;;;;;13.13;86.22;100761.38;5111542;28;20517;-85
2023/01/11 09:03:55;;;;;;;38.50;19.15;;;;;;;12.98;86.31;100752.78;5110875;28;20019;-85
2023/01/11 09:06:21;;;;;;;46.08;20.67;;;;;;;12.89;86.17;100765.25;5110328;28;20055;-85
2023/01/11 09:08:47;;;;;;;48.30;22.25;;;;;;;12.84;86.68;100762.09;5110665;28;20027;-85
2023/01/11 09:13:57;;;;;;;52.85;22.38;;;;;;;12.69;88.85;100773.41;5110620;28;20164;-83
2023/01/11 09:16:22;;;;;;;48.15;19.40;;;;;;;12.66;89.47;100779.06;5110544;28;20102;-84
2023/01/11 09:18:48;;;;;;;44.78;20.85;;;;;;;12.56;89.98;100784.41;5092305;28;20026;-85
2023/01/11 09:21:13;;;;;;;44.30;21.55;;;;;;;12.50;90.37;100779.56;5110214;28;20039;-83
2023/01/11 09:23:38;;;;;;;59.03;22.55;;;;;;;12.40;90.89;100762.44;5110436;28;20023;-82
2023/01/11 09:26:04;;;;;;;53.65;20.80;;;;;;;12.45;91.85;100754.81;5110543;28;20033;-84
2023/01/11 09:28:30;;;;;;;58.97;20.52;;;;;;;12.53;92.34;100768.50;5092125;28;20475;-84
2023/01/11 09:30:55;;;;;;;58.83;22.80;;;;;;;12.61;92.78;100776.75;5110238;28;20073;-83
2023/01/11 09:33:21;;;;;;;52.92;19.90;;;;;;;12.57;93.10;100769.91;5091821;28;20037;-83
2023/01/11 09:35:48;;;;;;;39.47;18.23;;;;;;;12.55;93.66;100786.25;5110002;28;20028;-82
2023/01/11 09:38:13;;;;;;;63.72;19.67;;;;;;;12.57;94.11;100769.91;5110518;28;20028;-83
2023/01/11 09:41:09;;;;;;;47.72;18.75;;;;;;;12.62;94.64;100777.63;5110467;28;20038;-80
2023/01/11 09:43:43;;;;;;;57.00;18.42;;;;;;;12.49;94.86;100778.69;5110601;28;20456;-81
2023/01/11 09:46:12;;;;;;;59.65;17.85;;;;;;;12.55;95.13;100777.31;5092064;28;20054;-81
2023/01/11 09:48:52;;;;;;;58.50;21.73;;;;;;;12.56;95.20;100770.94;5110887;28;20074;-82
2023/01/11 09:51:19;;;;;;;57.78;18.05;;;;;;;12.55;95.57;100775.47;5122097;28;20107;-81
2023/01/11 09:53:51;;;;;;;46.47;15.48;;;;;;;12.59;95.21;100788.69;5109065;28;20035;-80
2023/01/11 09:56:23;;;;;;;51.53;17.53;;;;;;;12.48;94.97;100778.81;5101554;28;20035;-80
2023/01/11 09:58:49;;;;;;;57.65;17.30;;;;;;;12.48;94.72;100760.78;5113124;28;20028;-81
2023/01/11 10:01:40;;;;;;;44.13;15.15;;;;;;;12.51;94.28;100754.25;5113439;28;20031;-81
2023/01/11 10:04:42;;;;;;;51.78;15.95;;;;;;;12.58;94.10;100760.84;5110193;28;20022;-79
2023/01/11 10:07:53;;;;;;;45.85;14.68;;;;;;;12.66;94.43;100749.38;5109454;28;20034;-80
2023/01/11 10:10:47;;;;;;;46.22;15.60;;;;;;;12.68;94.30;100750.97;5109958;28;20024;-81
2023/01/11 10:13:53;;;;;;;38.22;13.52;;;;;;;12.73;94.33;100754.09;5109731;28;20701;-81
2023/01/11 10:16:37;;;;;;;44.47;14.15;;;;;;;12.84;94.39;100745.88;5109592;28;20024;-80
2023/01/11 10:19:21;;;;;;;48.17;14.20;;;;;;;12.85;94.13;100758.41;5112005;28;20081;-81
2023/01/11 10:22:07;;;;;;;50.63;15.02;;;;;;;12.86;92.85;100746.63;5113552;28;20446;-81
2023/01/11 10:24:40;;;;;;;45.65;12.75;;;;;;;12.75;93.07;100744.00;5113380;28;20019;-82
2023/01/11 10:27:15;;;;;;;37.90;12.15;;;;;;;12.78;93.56;100756.41;5113368;28;20028;-82
2023/01/11 10:33:17;;;;;;;62.75;12.80;;;;;;;12.84;94.50;100753.97;5113574;28;20104;-81
2023/01/11 10:41:53;;;;;;;49.47;12.07;;;;;;;12.87;94.78;100732.13;5113286;28;20034;-81
2023/01/11 10:44:30;;;;;;;39.88;11.60;;;;;;;12.98;94.96;100734.72;5113024;28;20050;-82
2023/01/11 10:46:58;;;;;;;43.63;13.00;;;;;;;12.89;94.93;100740.97;5113460;28;20091;-82
2023/01/11 10:49:24;;;;;;;43.15;12.32;;;;;;;12.78;95.07;100735.63;5113421;28;20030;-81
2023/01/11 10:51:54;;;;;;;47.55;11.98;;;;;;;12.80;95.13;100730.13;5113012;28;20059;-82
2023/01/11 10:54:26;;;;;;;59.90;14.05;;;;;;;12.79;95.70;100721.16;5095022;28;20435;-82
2023/01/11 10:57:10;;;;;;;56.50;13.07;;;;;;;12.89;95.82;100726.59;5113308;28;20050;-82
2023/01/11 10:59:47;;;;;;;50.55;13.27;;;;;;;12.74;95.15;100736.91;5114437;28;20265;-83
2023/01/11 11:02:36;;;;;;;46.15;13.13;;;;;;;12.71;95.04;100728.25;5113945;28;20024;-83
2023/01/11 11:05:10;;;;;;;50.90;14.10;;;;;;;12.76;94.66;100720.56;5114080;28;20063;-83
2023/01/11 11:07:45;;;;;;;41.50;10.68;;;;;;;12.74;94.63;100736.06;5114405;28;20027;-85
2023/01/11 11:10:52;;;;;;;53.35;14.18;;;;;;;12.71;95.64;100733.63;5113742;28;20031;-84
2023/01/11 11:13:25;;;;;;;48.72;13.00;;;;;;;12.61;95.88;100741.69;5113578;28;20420;-85
2023/01/11 11:15:50;;;;;;;37.42;12.80;;;;;;;12.72;95.89;100744.28;5113489;28;20031;-83
2023/01/11 11:18:15;;;;;;;43.83;12.10;;;;;;;12.77;96.04;100743.88;5112432;28;20517;-84
2023/01/11 11:20:43;;;;;;;49.60;11.85;;;;;;;12.66;95.29;100742.13;5112657;28;20031;-84
2023/01/11 11:23:17;;;;;;;54.92;16.08;;;;;;;12.57;95.66;100737.53;5112508;28;20027;-84
2023/01/11 11:25:56;;;;;;;46.78;13.98;;;;;;;12.50;95.92;100731.84;5112503;28;20074;-84
2023/01/11 11:28:21;;;;;;;52.00;15.38;;;;;;;12.64;96.40;100718.97;5112341;28;20036;-84
2023/01/11 11:30:51;;;;;;;52.83;13.70;;;;;;;12.60;96.37;100718.38;5112003;28;20031;-84
2023/01/11 11:33:27;;;;;;;40.25;12.48;;;;;;;12.63;96.29;100710.00;5112246;28;20035;-84
2023/01/11 11:36:00;;;;;;;56.47;15.40;;;;;;;12.61;96.47;100706.59;5112574;28;20028;-84
2023/01/11 11:38:28;;;;;;;49.28;12.02;;;;;;;12.60;95.51;100715.69;5112090;28;20057;-84
2023/01/11 11:41:15;;;;;;;41.83;11.52;;;;;;;12.64;95.71;100705.47;5111720;28;20024;-82
2023/01/11 11:43:50;;;;;;;61.25;19.08;;;;;;;12.70;95.38;100718.44;5111737;28;20027;-84
2023/01/11 11:46:15;;;;;;;41.88;11.77;;;;;;;12.61;95.45;100708.44;5112951;28;20031;-83
2023/01/11 11:49:12;;;;;;;61.45;13.93;;;;;;;12.66;95.33;100715.13;5094358;28;20027;-84
2023/01/11 11:51:38;;;;;;;46.83;13.55;;;;;;;12.59;95.27;100708.59;5111731;28;20073;-84
2023/01/11 11:54:04;;;;;;;45.35;13.23;;;;;;;12.63;95.38;100710.00;5111777;28;20026;-84
2023/01/11 11:56:33;;;;;;;42.65;11.90;;;;;;;12.65;95.23;100701.78;5111809;28;20027;-83